Time;durP1;ratioP1;P1;durP2;ratioP2;P2;SDS_P1;SDS_P2;PMS_P1;PMS_P2;Temp;Humidity;BMP_temperature;BMP_pressure;BME280_temperature;BME280_humidity;BME280_pressure;Samples;Min_cycle;Max_cycle;Signal;HPM_P1;HPM_P2
2021/12/15 00:02:26;;;;;;;6.53;5.17;;;2.80;99.90;;;;;;5092880;28;20474;-54
2021/12/15 00:04:55;;;;;;;5.13;4.47;;;2.80;99.90;;;;;;5101907;28;20477;-53
2021/12/15 00:07:25;;;;;;;6.20;5.03;;;2.80;99.90;;;;;;5100143;28;20454;-54
2021/12/15 00:09:53;;;;;;;15.37;8.70;;;2.80;99.90;;;;;;5091557;28;20895;-54
2021/12/15 00:12:21;;;;;;;9.57;7.93;;;2.40;99.90;;;;;;5098587;28;20970;-55
2021/12/15 00:14:48;;;;;;;8.90;7.17;;;2.10;99.90;;;;;;5104474;28;21002;-53
2021/12/15 00:17:17;;;;;;;7.63;6.90;;;2.20;99.90;;;;;;5105706;28;20658;-55
2021/12/15 00:19:44;;;;;;;10.20;6.90;;;2.30;99.90;;;;;;5101014;28;20498;-53
2021/12/15 00:22:12;;;;;;;8.00;6.60;;;2.40;99.90;;;;;;5092855;28;20517;-55
2021/12/15 00:24:39;;;;;;;6.67;6.07;;;2.20;99.90;;;;;;5088361;28;20484;-55
2021/12/15 00:27:06;;;;;;;11.03;9.17;;;2.30;99.90;;;;;;5086527;28;20859;-55
2021/12/15 00:29:33;;;;;;;9.53;7.30;;;2.40;99.90;;;;;;5087131;28;20517;-54
2021/12/15 00:32:03;;;;;;;9.67;8.67;;;2.50;99.90;;;;;;5098252;28;20942;-54
2021/12/15 00:34:34;;;;;;;7.83;7.10;;;2.50;99.90;;;;;;5099173;28;20446;-56
2021/12/15 00:37:01;;;;;;;8.53;7.03;;;2.50;99.90;;;;;;5093579;28;21149;-54
2021/12/15 00:39:29;;;;;;;9.87;7.83;;;2.60;99.90;;;;;;5094611;28;20495;-54
2021/12/15 00:41:57;;;;;;;11.63;8.07;;;2.60;99.90;;;;;;5098719;28;20486;-54
2021/12/15 00:44:24;;;;;;;8.80;7.90;;;2.60;99.90;;;;;;5095351;28;20489;-54
2021/12/15 00:46:52;;;;;;;9.00;7.60;;;2.60;99.90;;;;;;5100781;28;20465;-54
2021/12/15 00:49:20;;;;;;;6.87;6.17;;;2.70;99.90;;;;;;5096755;28;20485;-55
2021/12/15 00:51:49;;;;;;;7.00;6.37;;;2.70;99.90;;;;;;5101655;28;20474;-55
2021/12/15 00:54:16;;;;;;;6.73;6.03;;;2.70;99.90;;;;;;5100756;28;20880;-56
2021/12/15 00:56:44;;;;;;;4.90;4.50;;;2.70;99.90;;;;;;5100937;28;20470;-56
2021/12/15 00:59:13;;;;;;;5.30;4.77;;;2.70;99.90;;;;;;5101791;28;20555;-55
2021/12/15 01:01:41;;;;;;;4.67;4.33;;;2.80;99.90;;;;;;5108208;28;20530;-54
2021/12/15 01:04:10;;;;;;;4.30;3.90;;;2.80;99.90;;;;;;5104605;28;20493;-55
2021/12/15 01:06:38;;;;;;;5.67;5.17;;;2.80;99.90;;;;;;5098378;28;20442;-55
2021/12/15 01:09:11;;;;;;;4.90;4.40;;;2.80;99.90;;;;;;5099438;28;20549;-53
2021/12/15 01:11:55;;;;;;;4.37;4.00;;;2.80;99.90;;;;;;5100268;28;20443;-55
2021/12/15 01:14:34;;;;;;;8.17;5.63;;;2.80;99.90;;;;;;5101752;28;20455;-55
2021/12/15 01:19:53;;;;;;;8.17;6.60;;;2.80;99.90;;;;;;5089286;28;20790;-55
2021/12/15 01:22:29;;;;;;;12.67;10.40;;;2.80;99.90;;;;;;5103349;28;20525;-55
2021/12/15 01:24:59;;;;;;;12.90;10.80;;;2.80;99.90;;;;;;5101367;28;20485;-55
2021/12/15 01:27:28;;;;;;;8.77;7.90;;;2.80;99.90;;;;;;5099112;28;21007;-54
2021/12/15 01:29:55;;;;;;;6.47;5.77;;;2.70;99.90;;;;;;5096729;28;20517;-54
2021/12/15 01:32:22;;;;;;;8.70;6.50;;;2.60;99.90;;;;;;5095434;28;20440;-53
2021/12/15 01:34:49;;;;;;;6.13;5.63;;;2.60;99.90;;;;;;5101439;28;20874;-54
2021/12/15 01:37:17;;;;;;;7.80;6.37;;;2.60;99.90;;;;;;5097332;28;20522;-55
2021/12/15 01:39:45;;;;;;;12.07;8.43;;;2.60;99.90;;;;;;5099627;28;20459;-55
2021/12/15 01:42:14;;;;;;;9.00;7.70;;;2.10;99.90;;;;;;5097111;28;20439;-55
2021/12/15 01:47:26;;;;;;;10.43;7.80;;;2.00;99.90;;;;;;5095740;28;20442;-55
2021/12/15 01:49:55;;;;;;;6.20;5.60;;;2.00;99.90;;;;;;5100653;28;20734;-55
2021/12/15 01:52:24;;;;;;;5.90;5.37;;;2.10;99.90;;;;;;5102296;28;20551;-54
2021/12/15 01:54:54;;;;;;;11.60;7.37;;;2.20;99.90;;;;;;5099934;28;20473;-54
2021/12/15 01:57:25;;;;;;;9.40;7.20;;;2.30;99.90;;;;;;5089974;28;20961;-54
2021/12/15 01:59:53;;;;;;;12.47;11.17;;;2.40;99.90;;;;;;5089634;28;20877;-54
2021/12/15 02:02:21;;;;;;;12.30;10.80;;;2.40;99.90;;;;;;5095902;28;20474;-54
2021/12/15 02:04:49;;;;;;;11.07;9.97;;;2.50;99.90;;;;;;5085920;28;20456;-54
2021/12/15 02:07:20;;;;;;;13.93;12.00;;;2.50;99.90;;;;;;5086743;28;20886;-55
2021/12/15 02:12:37;;;;;;;8.70;7.80;;;2.50;99.90;;;;;;5100112;28;20518;-53
2021/12/15 02:15:09;;;;;;;6.90;5.73;;;2.50;99.90;;;;;;5087872;28;20536;-56
2021/12/15 02:17:36;;;;;;;6.03;5.53;;;2.60;99.90;;;;;;5088696;28;20501;-55
2021/12/15 02:20:17;;;;;;;5.17;4.67;;;2.60;99.90;;;;;;5106738;22;20511;-86
2021/12/15 02:22:45;;;;;;;8.37;7.40;;;2.60;99.90;;;;;;5090142;28;20469;-86
2021/12/15 02:25:15;;;;;;;11.20;9.50;;;2.70;99.90;;;;;;5090490;28;20449;-87
2021/12/15 02:27:42;;;;;;;11.00;8.30;;;2.60;99.90;;;;;;5092970;28;20432;-88
2021/12/15 02:30:27;;;;;;;8.77;7.70;;;2.60;99.90;;;;;;5089835;28;20480;-87
2021/12/15 02:33:05;;;;;;;10.53;8.30;;;2.50;99.90;;;;;;5092262;28;20437;-87
2021/12/15 02:38:25;;;;;;;8.90;8.00;;;2.00;99.90;;;;;;5092720;28;20447;-87
2021/12/15 02:40:52;;;;;;;8.00;7.20;;;1.80;99.90;;;;;;5093234;28;20537;-87
2021/12/15 02:43:20;;;;;;;7.47;6.70;;;1.90;99.90;;;;;;5097728;28;20436;-88
2021/12/15 02:45:47;;;;;;;10.77;7.13;;;2.10;99.90;;;;;;5098062;28;20470;-88
2021/12/15 02:48:14;;;;;;;7.30;6.47;;;2.20;99.90;;;;;;5095393;28;20453;-86
2021/12/15 02:50:41;;;;;;;8.90;7.83;;;2.30;99.90;;;;;;5096934;28;20514;-89
2021/12/15 02:53:10;;;;;;;9.77;8.77;;;2.30;99.90;;;;;;5094175;28;20453;-88
2021/12/15 02:55:38;;;;;;;9.20;8.40;;;2.30;99.90;;;;;;5096449;28;20495;-87
2021/12/15 02:58:06;;;;;;;9.47;7.60;;;2.30;99.90;;;;;;5085494;28;20468;-85
2021/12/15 03:00:46;;;;;;;11.40;9.50;;;2.40;99.90;;;;;;5088968;28;20480;-86
2021/12/15 03:06:09;;;;;;;12.70;10.37;;;2.50;99.90;;;;;;5082831;28;20782;-87
2021/12/15 03:08:51;;;;;;;18.93;11.80;;;2.50;99.90;;;;;;5094484;28;20444;-88
2021/12/15 03:16:50;;;;;;;15.47;10.47;;;2.50;99.90;;;;;;5079435;28;20463;-54
2021/12/15 03:19:17;;;;;;;13.70;9.70;;;2.60;99.90;;;;;;5081438;28;20465;-53
2021/12/15 03:21:44;;;;;;;10.70;8.03;;;2.60;99.90;;;;;;5063464;28;20703;-54
2021/12/15 03:24:16;;;;;;;9.20;8.13;;;2.60;99.90;;;;;;5060624;28;20472;-53
2021/12/15 03:35:03;;;;;;;19.73;11.03;;;2.70;99.90;;;;;;5081930;28;20455;-79
2021/12/15 03:37:33;;;;;;;12.57;9.67;;;2.70;99.90;;;;;;5079476;28;20452;-80
2021/12/15 03:40:05;;;;;;;13.67;10.33;;;2.70;99.90;;;;;;5088023;28;20980;-80
2021/12/15 03:42:35;;;;;;;16.33;10.87;;;2.70;99.90;;;;;;5087463;28;20455;-80
2021/12/15 03:45:08;;;;;;;14.63;11.10;;;2.70;99.90;;;;;;5085163;28;20524;-80
2021/12/15 03:47:39;;;;;;;14.03;10.43;;;2.70;99.90;;;;;;5080788;28;20464;-80
2021/12/15 03:50:09;;;;;;;15.97;11.33;;;2.70;99.90;;;;;;5077194;28;20561;-80
2021/12/15 03:52:36;;;;;;;14.90;10.47;;;2.70;99.90;;;;;;5078299;28;20475;-80
2021/12/15 03:55:05;;;;;;;20.50;10.13;;;2.70;99.90;;;;;;5085485;28;20483;-80
2021/12/15 03:57:32;;;;;;;15.30;9.87;;;2.60;99.90;;;;;;5078904;28;20468;-80
2021/12/15 03:59:59;;;;;;;14.97;10.70;;;2.60;99.90;;;;;;5082300;28;20461;-79
2021/12/15 04:02:28;;;;;;;16.00;9.67;;;2.70;99.90;;;;;;5089223;28;20456;-80
2021/12/15 04:04:55;;;;;;;11.57;7.97;;;2.60;99.90;;;;;;5082027;28;20971;-80
2021/12/15 04:07:23;;;;;;;11.93;8.57;;;2.70;99.90;;;;;;5083210;28;20484;-80
2021/12/15 04:09:52;;;;;;;15.33;10.10;;;2.70;99.90;;;;;;5078621;28;20504;-80
2021/12/15 04:12:20;;;;;;;19.73;9.30;;;2.70;99.90;;;;;;5079281;28;20476;-80
2021/12/15 04:14:55;;;;;;;45.57;16.20;;;2.70;99.90;;;;;;5085438;28;20475;-80
2021/12/15 04:17:31;;;;;;;17.70;10.37;;;2.50;99.90;;;;;;5083206;28;20467;-80
2021/12/15 04:20:04;;;;;;;28.27;9.83;;;2.50;99.90;;;;;;5082567;28;20469;-80
2021/12/15 04:22:31;;;;;;;63.63;16.10;;;2.50;99.90;;;;;;5090743;28;20479;-79
2021/12/15 04:24:59;;;;;;;35.57;13.50;;;2.40;99.90;;;;;;5077213;28;20869;-79
2021/12/15 04:27:26;;;;;;;27.57;12.93;;;2.20;99.90;;;;;;5078446;28;20530;-79
2021/12/15 04:29:53;;;;;;;30.03;12.10;;;2.00;99.90;;;;;;5080627;28;20472;-80
2021/12/15 04:32:29;;;;;;;32.20;11.57;;;2.00;99.90;;;;;;5087939;28;20511;-80
2021/12/15 04:34:56;;;;;;;13.43;10.80;;;2.10;99.90;;;;;;5079836;28;20878;-80
2021/12/15 04:37:25;;;;;;;21.80;10.50;;;2.20;99.90;;;;;;5076793;28;20487;-81
2021/12/15 04:39:52;;;;;;;30.43;10.90;;;2.20;99.90;;;;;;5081064;28;20471;-80
2021/12/15 04:42:21;;;;;;;19.60;11.13;;;2.00;99.90;;;;;;5082048;28;20475;-80
2021/12/15 04:44:49;;;;;;;15.90;10.63;;;2.00;99.90;;;;;;5084627;28;20535;-80
2021/12/15 04:47:16;;;;;;;41.67;13.77;;;2.00;99.90;;;;;;5086445;28;20451;-80
2021/12/15 04:49:47;;;;;;;30.37;12.47;;;2.10;99.90;;;;;;5086179;28;20550;-80
2021/12/15 04:52:16;;;;;;;34.30;13.17;;;2.20;99.90;;;;;;5088235;28;21068;-80
2021/12/15 04:54:45;;;;;;;19.63;9.43;;;2.20;99.90;;;;;;5087695;28;20544;-80
2021/12/15 04:57:14;;;;;;;21.63;9.57;;;2.20;99.90;;;;;;5074777;28;20476;-80
2021/12/15 04:59:42;;;;;;;22.10;8.87;;;2.20;99.90;;;;;;5072468;28;20468;-80
2021/12/15 05:02:11;;;;;;;22.90;9.57;;;2.20;99.90;;;;;;5077431;28;20476;-80
2021/12/15 05:04:38;;;;;;;18.40;10.10;;;2.20;99.90;;;;;;5082053;28;20499;-80
2021/12/15 05:07:05;;;;;;;29.10;10.73;;;2.20;99.90;;;;;;5081164;28;20483;-80
2021/12/15 05:09:32;;;;;;;19.90;9.53;;;2.10;99.90;;;;;;5086823;28;20544;-80
2021/12/15 05:12:01;;;;;;;30.57;10.43;;;1.90;99.90;;;;;;5088081;28;20978;-79
2021/12/15 05:14:28;;;;;;;35.10;12.30;;;1.90;99.90;;;;;;5080636;28;20979;-80
2021/12/15 05:16:56;;;;;;;34.60;13.40;;;1.90;99.90;;;;;;5082281;28;21149;-79
2021/12/15 05:19:25;;;;;;;15.57;9.90;;;2.00;99.90;;;;;;5075875;28;20472;-80
2021/12/15 05:21:52;;;;;;;10.80;8.20;;;2.20;99.90;;;;;;5078494;28;20530;-80
2021/12/15 05:24:30;;;;;;;31.90;9.90;;;2.20;99.90;;;;;;5081135;28;20954;-80
2021/12/15 05:26:59;;;;;;;34.30;12.67;;;2.00;99.90;;;;;;5074831;28;20448;-81
2021/12/15 05:29:27;;;;;;;23.57;11.40;;;2.00;99.90;;;;;;5075153;28;20458;-80
2021/12/15 05:31:54;;;;;;;42.57;13.90;;;2.10;99.90;;;;;;5083813;28;20503;-80
2021/12/15 05:34:21;;;;;;;35.97;13.70;;;2.20;99.90;;;;;;5080968;28;20916;-80
2021/12/15 05:36:50;;;;;;;24.90;12.43;;;2.20;99.90;;;;;;5081471;28;20508;-80
2021/12/15 05:39:18;;;;;;;37.30;13.33;;;2.30;99.90;;;;;;5079694;28;20456;-80
2021/12/15 05:41:45;;;;;;;43.43;12.70;;;2.30;99.90;;;;;;5078218;28;20477;-80
2021/12/15 05:44:12;;;;;;;21.07;11.57;;;2.30;99.90;;;;;;5082177;28;20572;-80
2021/12/15 05:46:40;;;;;;;15.60;9.37;;;2.30;99.90;;;;;;5076535;28;20475;-81
2021/12/15 05:49:07;;;;;;;11.77;7.70;;;2.40;99.90;;;;;;5077745;28;20476;-80
2021/12/15 05:51:36;;;;;;;8.13;7.20;;;2.40;99.90;;;;;;5079426;28;20511;-80
2021/12/15 05:54:04;;;;;;;9.87;6.67;;;2.40;99.90;;;;;;5086383;28;20479;-80
2021/12/15 05:56:31;;;;;;;14.60;9.20;;;2.40;99.90;;;;;;5088755;28;21103;-80
2021/12/15 05:58:58;;;;;;;14.23;8.30;;;2.50;99.90;;;;;;5085942;28;20471;-81
2021/12/15 06:01:26;;;;;;;25.73;9.00;;;2.50;99.90;;;;;;5084546;28;20488;-81
2021/12/15 06:03:55;;;;;;;14.67;8.90;;;2.50;99.90;;;;;;5084066;28;20474;-81
2021/12/15 06:06:22;;;;;;;23.03;8.40;;;2.50;99.90;;;;;;5087991;28;20468;-81
2021/12/15 06:08:49;;;;;;;17.83;8.43;;;2.40;99.90;;;;;;5088291;28;20488;-80
2021/12/15 06:11:16;;;;;;;14.77;7.73;;;2.00;99.90;;;;;;5084221;28;21079;-80
2021/12/15 06:13:47;;;;;;;12.00;7.60;;;1.90;99.90;;;;;;5081080;28;20502;-80
2021/12/15 06:16:14;;;;;;;15.73;7.33;;;1.80;99.90;;;;;;5089802;28;20452;-81
2021/12/15 06:18:42;;;;;;;29.03;9.70;;;1.70;99.90;;;;;;5093483;28;20475;-81
2021/12/15 06:21:11;;;;;;;16.83;8.13;;;1.70;99.90;;;;;;5094325;28;20459;-81
2021/12/15 06:23:38;;;;;;;25.07;8.30;;;1.60;99.90;;;;;;5092243;28;20474;-81
2021/12/15 06:26:06;;;;;;;27.67;10.60;;;1.70;99.90;;;;;;5086193;28;20497;-81
2021/12/15 06:28:34;;;;;;;20.93;8.93;;;1.70;99.90;;;;;;5088588;28;20501;-81
2021/12/15 06:31:03;;;;;;;27.60;10.87;;;1.70;99.90;;;;;;5085998;28;20507;-81
2021/12/15 06:33:30;;;;;;;24.17;10.20;;;1.70;99.90;;;;;;5085987;28;21019;-81
2021/12/15 06:35:59;;;;;;;29.33;10.80;;;1.80;99.90;;;;;;5086280;28;20947;-81
2021/12/15 06:38:30;;;;;;;24.70;10.43;;;1.80;99.90;;;;;;5088327;28;20973;-81
2021/12/15 06:40:57;;;;;;;24.50;9.53;;;1.80;99.90;;;;;;5079424;28;20482;-81
2021/12/15 06:43:25;;;;;;;36.43;10.50;;;1.90;99.90;;;;;;5085217;28;20499;-82
2021/12/15 06:46:03;;;;;;;20.40;9.73;;;1.90;99.90;;;;;;5084031;28;20488;-81
2021/12/15 06:59:30;;;;;;;23.93;11.77;;;2.20;99.90;;;;;;5080613;28;20438;-81
2021/12/15 07:01:57;;;;;;;20.10;11.37;;;2.20;99.90;;;;;;5078999;28;20467;-81
2021/12/15 07:04:24;;;;;;;17.67;11.40;;;2.20;99.90;;;;;;5080192;28;20891;-80
2021/12/15 07:06:52;;;;;;;12.57;9.57;;;2.30;99.90;;;;;;5093043;28;20475;-80
2021/12/15 07:09:22;;;;;;;18.27;9.70;;;2.30;99.90;;;;;;5074037;28;20885;-81
2021/12/15 07:11:50;;;;;;;15.77;8.30;;;2.30;99.90;;;;;;5080709;28;20511;-81
2021/12/15 07:14:17;;;;;;;23.83;10.20;;;2.40;99.90;;;;;;5082812;28;20905;-81
2021/12/15 07:16:47;;;;;;;13.03;8.70;;;2.40;99.90;;;;;;5083590;28;20512;-81
2021/12/15 07:19:19;;;;;;;11.10;8.60;;;2.40;99.90;;;;;;5081905;28;20455;-80
2021/12/15 07:21:54;;;;;;;17.87;9.83;;;2.40;99.90;;;;;;5080857;28;20815;-80
2021/12/15 07:24:23;;;;;;;12.67;9.03;;;2.40;99.90;;;;;;5092893;28;20475;-81
2021/12/15 07:26:50;;;;;;;18.03;10.40;;;2.40;99.90;;;;;;5084594;28;20468;-81
2021/12/15 07:29:17;;;;;;;23.30;9.93;;;2.40;99.90;;;;;;5088006;28;20444;-81
2021/12/15 07:31:44;;;;;;;18.17;10.57;;;2.40;99.90;;;;;;5090698;28;20483;-81
2021/12/15 07:34:11;;;;;;;20.43;11.17;;;2.40;99.90;;;;;;5091702;28;20490;-82
2021/12/15 07:36:38;;;;;;;11.23;9.00;;;2.50;99.90;;;;;;5090460;28;20475;-81
2021/12/15 07:39:10;;;;;;;22.13;10.10;;;2.50;99.90;;;;;;5080288;28;20478;-81
2021/12/15 07:41:49;;;;;;;23.33;10.30;;;2.50;99.90;;;;;;5081763;28;21678;-81
2021/12/15 07:44:16;;;;;;;13.70;8.53;;;2.50;99.90;;;;;;5103810;28;20472;-81
2021/12/15 07:46:44;;;;;;;13.67;8.97;;;2.50;99.90;;;;;;5075630;28;20948;-80
2021/12/15 07:49:12;;;;;;;13.53;9.57;;;2.50;99.90;;;;;;5076208;28;20480;-81
2021/12/15 07:51:41;;;;;;;12.43;8.80;;;2.50;99.90;;;;;;5078162;28;20585;-81
2021/12/15 07:54:08;;;;;;;8.77;7.43;;;2.50;99.90;;;;;;5081203;28;20549;-81
2021/12/15 07:56:35;;;;;;;15.60;8.67;;;2.50;99.90;;;;;;5088503;28;20494;-81
2021/12/15 07:59:04;;;;;;;22.47;9.23;;;2.30;99.90;;;;;;5076147;28;20487;-81
2021/12/15 08:01:31;;;;;;;11.17;8.63;;;2.30;99.90;;;;;;5086223;28;20701;-81
2021/12/15 08:03:58;;;;;;;13.63;9.43;;;2.40;99.90;;;;;;5076817;28;20911;-81
2021/12/15 08:06:27;;;;;;;16.30;10.33;;;2.40;99.90;;;;;;5084956;28;20506;-82
2021/12/15 08:08:55;;;;;;;14.30;9.07;;;2.40;99.90;;;;;;5087293;28;20782;-81
2021/12/15 08:11:22;;;;;;;11.47;9.37;;;2.50;99.90;;;;;;5080806;28;20519;-80
2021/12/15 08:13:49;;;;;;;9.40;8.00;;;2.50;99.90;;;;;;5082983;28;20511;-81
2021/12/15 08:16:19;;;;;;;8.47;7.57;;;2.50;99.90;;;;;;5076227;28;20504;-81
2021/12/15 08:18:46;;;;;;;10.30;7.90;;;2.50;99.90;;;;;;5076053;28;20484;-81
2021/12/15 08:21:14;;;;;;;9.57;7.70;;;2.50;99.90;;;;;;5085907;28;21021;-82
2021/12/15 08:23:41;;;;;;;7.87;7.17;;;2.50;99.90;;;;;;5081813;28;20518;-80
2021/12/15 08:26:08;;;;;;;11.07;7.90;;;2.40;99.90;;;;;;5090769;28;20555;-81
2021/12/15 08:28:36;;;;;;;12.30;8.77;;;2.20;99.90;;;;;;5081499;28;20504;-80
2021/12/15 08:31:07;;;;;;;8.43;7.63;;;2.20;99.90;;;;;;5073056;28;20571;-81
2021/12/15 08:33:36;;;;;;;14.10;9.10;;;2.20;99.90;;;;;;5080972;28;20504;-81
2021/12/15 08:36:06;;;;;;;15.30;8.73;;;2.20;99.90;;;;;;5082411;28;20499;-81
2021/12/15 08:38:36;;;;;;;16.13;10.20;;;2.20;99.90;;;;;;5079921;28;20677;-81
2021/12/15 08:41:07;;;;;;;20.90;9.33;;;2.30;99.90;;;;;;5079691;28;20924;-81
2021/12/15 08:43:34;;;;;;;14.47;8.03;;;2.30;99.90;;;;;;5077882;28;20545;-81
2021/12/15 08:46:06;;;;;;;11.63;8.40;;;2.40;99.90;;;;;;5091553;28;20801;-82
2021/12/15 08:48:34;;;;;;;9.87;7.60;;;2.40;99.90;;;;;;5075012;28;20483;-81
2021/12/15 08:51:03;;;;;;;12.70;8.53;;;2.20;99.90;;;;;;5080728;28;20559;-81
2021/12/15 08:53:30;;;;;;;10.00;8.23;;;2.20;99.90;;;;;;5080203;28;20492;-81
2021/12/15 08:55:57;;;;;;;20.77;10.40;;;2.20;99.90;;;;;;5083029;28;20452;-81
2021/12/15 08:58:25;;;;;;;20.63;10.27;;;2.30;99.90;;;;;;5090283;28;20486;-81
2021/12/15 09:00:56;;;;;;;34.33;11.93;;;2.40;99.90;;;;;;5085955;28;20880;-81
2021/12/15 09:03:24;;;;;;;91.23;17.47;;;2.40;99.90;;;;;;5079777;28;20646;-81
2021/12/15 09:05:54;;;;;;;120.87;21.10;;;2.20;99.90;;;;;;5074819;28;20480;-81
2021/12/15 09:08:24;;;;;;;154.70;26.43;;;1.80;99.90;;;;;;5076486;28;20484;-81
2021/12/15 09:10:53;;;;;;;98.40;18.00;;;1.70;99.90;;;;;;5077046;28;20480;-81
2021/12/15 09:13:20;;;;;;;78.03;17.00;;;1.70;99.90;;;;;;5094643;22;20587;-48
2021/12/15 09:15:48;;;;;;;40.53;15.13;;;1.60;99.90;;;;;;5089862;28;20482;-48
2021/12/15 09:18:15;;;;;;;98.37;21.47;;;1.60;99.90;;;;;;5079206;28;20998;-48
2021/12/15 09:20:45;;;;;;;70.43;17.20;;;1.60;99.90;;;;;;5069591;28;20468;-48
2021/12/15 09:23:17;;;;;;;67.23;15.60;;;1.70;99.90;;;;;;5068597;28;20527;-50
2021/12/15 09:25:47;;;;;;;81.40;17.47;;;1.60;99.90;;;;;;5068547;28;20502;-48
2021/12/15 09:28:15;;;;;;;27.20;12.93;;;1.70;99.90;;;;;;5068856;28;20979;-49
2021/12/15 09:30:46;;;;;;;68.47;27.37;;;1.60;99.90;;;;;;5068044;28;20531;-49
2021/12/15 09:33:13;;;;;;;20.17;17.00;;;1.70;99.90;;;;;;5068218;28;20520;-49
2021/12/15 09:35:41;;;;;;;79.80;32.30;;;1.80;99.90;;;;;;5069015;28;20979;-49
2021/12/15 09:38:08;;;;;;;122.27;49.30;;;1.90;99.90;;;;;;5068753;28;20543;-48
2021/12/15 09:40:36;;;;;;;83.73;26.10;;;2.00;99.90;;;;;;5067255;28;21004;-49
2021/12/15 09:43:04;;;;;;;70.90;14.80;;;1.70;99.90;;;;;;5069140;28;20461;-48
2021/12/15 09:45:40;;;;;;;117.43;19.30;;;1.40;99.90;;;;;;5067065;28;21090;-48
2021/12/15 10:02:34;;;;;;;68.03;14.33;;;1.30;99.90;;;;;;5063868;28;20438;-49
2021/12/15 10:05:12;;;;;;;34.53;10.50;;;1.50;99.90;;;;;;5069554;28;20847;-49
2021/12/15 10:10:49;;;;;;;88.13;17.07;;;1.70;99.90;;;;;;5067892;28;20431;-50
2021/12/15 10:19:18;;;;;;;57.27;15.00;;;1.50;99.90;;;;;;5069015;28;20486;-47
2021/12/15 10:22:27;;;;;;;68.93;15.70;;;1.70;99.90;;;;;;5068970;28;20440;-48
2021/12/15 10:24:57;;;;;;;87.90;18.13;;;1.80;99.90;;;;;;5069891;28;20441;-49
2021/12/15 10:27:36;;;;;;;57.37;16.63;;;1.70;99.90;;;;;;5067223;28;20507;-50
2021/12/15 10:30:09;;;;;;;31.40;13.40;;;1.70;99.90;;;;;;5066731;28;20531;-49
2021/12/15 10:32:42;;;;;;;27.30;12.57;;;1.80;99.90;;;;;;5067112;28;20564;-48
2021/12/15 10:35:12;;;;;;;77.97;17.93;;;1.90;99.90;;;;;;5066144;28;20448;-48
2021/12/15 10:37:41;;;;;;;21.83;12.17;;;2.00;99.90;;;;;;5069884;28;20551;-48
2021/12/15 10:40:26;;;;;;;60.50;14.63;;;2.00;99.90;;;;;;5068964;28;20802;-48
2021/12/15 10:43:03;;;;;;;250.53;102.93;;;2.10;99.90;;;;;;5068149;28;20952;-49
2021/12/15 10:45:36;;;;;;;27.33;18.30;;;3.30;99.90;;;;;;5067946;28;20520;-49
2021/12/15 10:48:09;;;;;;;17.07;11.20;;;4.70;99.90;;;;;;5067866;28;20836;-49
2021/12/15 10:50:38;;;;;;;18.57;11.80;;;6.70;99.90;;;;;;5072876;28;20473;-48
2021/12/15 10:53:05;;;;;;;29.27;11.57;;;7.80;99.90;;;;;;5068485;28;20566;-49
2021/12/15 10:55:37;;;;;;;17.10;10.73;;;8.60;99.90;;;;;;5068212;28;20493;-49
2021/12/15 10:58:33;;;;;;;12.30;8.47;;;9.20;99.90;;;;;;5067792;28;20570;-50
2021/12/15 11:01:00;;;;;;;16.97;8.90;;;9.50;99.90;;;;;;5069722;28;20536;-49
2021/12/15 11:03:35;;;;;;;13.23;7.63;;;9.70;99.90;;;;;;5067294;28;20999;-49
2021/12/15 11:06:19;;;;;;;9.47;7.57;;;9.70;99.90;;;;;;5067715;28;20440;-49
2021/12/15 11:08:46;;;;;;;10.00;7.97;;;9.90;99.90;;;;;;5071111;28;20495;-49
2021/12/15 11:11:27;;;;;;;10.63;8.10;;;9.80;99.90;;;;;;5071598;28;20508;-50
2021/12/15 11:13:54;;;;;;;9.13;8.17;;;9.20;99.90;;;;;;5060972;28;20935;-50
2021/12/15 11:16:29;;;;;;;17.30;7.87;;;8.50;99.90;;;;;;5062519;28;20558;-51
2021/12/15 11:18:58;;;;;;;8.37;7.57;;;7.70;99.90;;;;;;5063781;28;20536;-49
2021/12/15 11:21:32;;;;;;;13.70;9.03;;;7.10;99.90;;;;;;5066078;28;20474;-48
2021/12/15 11:24:01;;;;;;;20.87;11.20;;;6.50;99.90;;;;;;5067608;28;20444;-48
2021/12/15 11:26:28;;;;;;;12.17;8.43;;;5.90;99.90;;;;;;5067919;28;20437;-51
2021/12/15 11:28:54;;;;;;;11.63;10.20;;;5.50;99.90;;;;;;5067055;28;20563;-48
2021/12/15 11:31:24;;;;;;;19.90;11.20;;;5.10;99.90;;;;;;5066655;28;20886;-49
2021/12/15 11:33:53;;;;;;;22.00;9.80;;;4.70;99.90;;;;;;5067443;28;20741;-49
2021/12/15 11:36:26;;;;;;;17.30;9.83;;;4.40;99.90;;;;;;5064662;28;20481;-49
2021/12/15 11:38:57;;;;;;;12.67;9.83;;;4.00;99.90;;;;;;5068159;28;20467;-51
2021/12/15 11:41:26;;;;;;;11.53;8.70;;;3.80;99.90;;;;;;5063904;28;20530;-50
2021/12/15 11:43:56;;;;;;;25.00;10.50;;;3.70;99.90;;;;;;5064330;28;20451;-50
2021/12/15 11:46:27;;;;;;;12.50;8.70;;;3.60;99.90;;;;;;5067261;28;20526;-50
2021/12/15 11:48:57;;;;;;;14.17;9.80;;;3.90;99.90;;;;;;5068828;28;20472;-49
2021/12/15 11:51:36;;;;;;;17.27;9.20;;;3.90;99.90;;;;;;5070097;28;20469;-49
2021/12/15 11:54:12;;;;;;;9.07;7.77;;;3.90;99.90;;;;;;5068747;28;20537;-48
2021/12/15 11:56:39;;;;;;;15.73;8.60;;;3.80;99.90;;;;;;5071414;28;20525;-51
2021/12/15 11:59:21;;;;;;;10.30;7.90;;;3.70;99.90;;;;;;5066782;28;20573;-48
2021/12/15 12:01:55;;;;;;;12.30;7.80;;;3.70;99.90;;;;;;5066802;28;20527;-49
2021/12/15 12:04:43;;;;;;;10.43;7.77;;;3.70;99.90;;;;;;5061136;28;20563;-49
2021/12/15 12:07:25;;;;;;;14.00;8.53;;;3.60;99.90;;;;;;5065634;28;20448;-50
2021/12/15 12:09:55;;;;;;;15.73;8.40;;;3.60;99.90;;;;;;5069101;28;20528;-48
2021/12/15 12:12:26;;;;;;;13.83;12.10;;;3.50;99.90;;;;;;5069429;28;20531;-49
2021/12/15 12:14:53;;;;;;;14.80;11.10;;;3.40;99.90;;;;;;5063247;28;20504;-49
2021/12/15 12:17:24;;;;;;;11.67;8.47;;;3.40;99.90;;;;;;5066290;28;20566;-49
2021/12/15 12:19:55;;;;;;;13.10;9.43;;;3.40;99.90;;;;;;5067766;28;20480;-49
2021/12/15 12:22:26;;;;;;;16.87;9.80;;;3.40;99.90;;;;;;5070056;28;20463;-49
2021/12/15 12:24:57;;;;;;;17.50;9.60;;;3.30;99.90;;;;;;5065951;28;20519;-49
2021/12/15 12:27:26;;;;;;;20.80;10.37;;;3.30;99.90;;;;;;5070043;28;20505;-49
2021/12/15 12:29:55;;;;;;;15.30;9.13;;;3.30;99.90;;;;;;5063047;28;20971;-49
2021/12/15 12:32:22;;;;;;;15.00;11.30;;;3.20;99.90;;;;;;5066196;28;20525;-51
2021/12/15 12:34:51;;;;;;;17.13;11.27;;;3.20;99.90;;;;;;5070222;28;20532;-49
2021/12/15 12:37:18;;;;;;;27.80;10.67;;;3.20;99.90;;;;;;5069216;28;20494;-49
2021/12/15 12:39:53;;;;;;;20.20;9.97;;;3.10;99.90;;;;;;5070260;28;20531;-49
2021/12/15 12:42:36;;;;;;;27.10;10.50;;;3.10;99.90;;;;;;5069673;28;20440;-49
2021/12/15 12:45:17;;;;;;;13.97;8.87;;;3.10;99.90;;;;;;5069369;28;20444;-49
2021/12/15 12:48:01;;;;;;;15.40;9.33;;;3.10;99.90;;;;;;5062932;28;20479;-49
2021/12/15 13:01:33;;;;;;;10.40;8.80;;;3.00;99.90;;;;;;5064240;28;20455;-49
2021/12/15 13:04:11;;;;;;;9.87;7.83;;;3.00;99.90;;;;;;5067687;28;20605;-49
2021/12/15 13:06:41;;;;;;;18.87;13.50;;;3.00;99.90;;;;;;5069251;28;20558;-49
2021/12/15 13:09:11;;;;;;;11.17;8.60;;;3.00;99.90;;;;;;5068758;28;20472;-49
2021/12/15 13:11:41;;;;;;;17.40;9.27;;;3.00;99.90;;;;;;5068986;28;20484;-49
2021/12/15 13:14:11;;;;;;;12.70;9.10;;;3.00;99.90;;;;;;5068654;28;20545;-49
2021/12/15 13:16:43;;;;;;;12.00;10.13;;;3.00;99.90;;;;;;5065169;28;20484;-49
2021/12/15 13:19:18;;;;;;;15.23;9.60;;;3.00;99.90;;;;;;5068174;28;20460;-49
2021/12/15 13:22:05;;;;;;;18.23;9.80;;;2.90;99.90;;;;;;5066057;28;20874;-49
2021/12/15 13:30:46;;;;;;;23.73;10.50;;;2.90;99.90;;;;;;5062918;28;20550;-50
2021/12/15 13:33:17;;;;;;;11.07;8.63;;;2.90;99.90;;;;;;5061540;28;20533;-49
2021/12/15 13:35:52;;;;;;;10.03;8.20;;;2.90;99.90;;;;;;5063032;28;20453;-49
2021/12/15 13:38:29;;;;;;;31.60;12.07;;;2.90;99.90;;;;;;5061976;28;20668;-49
2021/12/15 13:41:05;;;;;;;39.97;11.33;;;2.90;99.90;;;;;;5068381;28;20527;-49
2021/12/15 13:43:46;;;;;;;29.83;10.47;;;2.80;99.90;;;;;;5067478;28;20844;-49
2021/12/15 13:46:31;;;;;;;17.60;8.80;;;2.80;99.90;;;;;;5069016;28;20478;-49
2021/12/15 13:49:02;;;;;;;13.10;9.13;;;2.70;99.90;;;;;;5066792;28;20571;-49
2021/12/15 13:52:00;;;;;;;34.90;12.43;;;2.60;99.90;;;;;;5069041;28;20533;-50
2021/12/15 13:55:07;;;;;;;13.00;9.43;;;2.60;99.90;;;;;;5069256;28;20479;-49
2021/12/15 13:57:38;;;;;;;14.60;10.00;;;2.60;99.90;;;;;;5068234;28;20551;-49
2021/12/15 14:00:19;;;;;;;11.90;7.97;;;2.60;99.90;;;;;;5068909;28;20550;-50
2021/12/15 14:02:57;;;;;;;17.97;8.33;;;2.60;99.90;;;;;;5068891;28;20540;-50
2021/12/15 14:05:27;;;;;;;31.30;10.47;;;2.60;99.90;;;;;;5068013;28;20955;-50
2021/12/15 14:07:58;;;;;;;33.90;12.67;;;2.60;99.90;;;;;;5060947;28;20535;-50
2021/12/15 14:11:01;;;;;;;22.23;9.57;;;2.60;99.90;;;;;;5068092;28;20440;-48
2021/12/15 14:13:50;;;;;;;10.60;9.30;;;2.50;99.90;;;;;;5068850;28;20565;-48
2021/12/15 14:16:41;;;;;;;16.13;9.47;;;2.50;99.90;;;;;;5065264;28;20555;-50
2021/12/15 14:19:11;;;;;;;27.07;10.87;;;2.50;99.90;;;;;;5056909;28;20913;-49
2021/12/15 14:21:38;;;;;;;31.77;10.37;;;2.40;99.90;;;;;;5068472;28;20882;-49
2021/12/15 14:24:07;;;;;;;11.03;8.77;;;2.40;99.90;;;;;;5066832;28;20436;-49